Time;durP1;ratioP1;P1;durP2;ratioP2;P2;SDS_P1;SDS_P2;PMS_P1;PMS_P2;Temp;Humidity;BMP_temperature;BMP_pressure;BME280_temperature;BME280_humidity;BME280_pressure;Samples;Min_cycle;Max_cycle;Signal;HPM_P1;HPM_P2
2024/01/05 00:01:20;;;;;;;11.18;7.65;;;;;;;;;;5089887;28;20026;-70
2024/01/05 00:03:46;;;;;;;7.20;6.60;;;;;;;;;;5089966;28;20166;-71
2024/01/05 00:06:12;;;;;;;6.53;5.45;;;;;;;;;;5089928;28;20035;-71
2024/01/05 00:08:38;;;;;;;4.55;4.22;;;;;;;;;;5090101;28;20040;-71
2024/01/05 00:11:04;;;;;;;8.05;5.82;;;;;;;;;;5086535;28;20035;-70
2024/01/05 00:13:30;;;;;;;8.43;5.78;;;;;;;;;;5083052;28;20558;-73
2024/01/05 00:15:55;;;;;;;5.63;5.13;;;;;;;;;;5089858;28;20119;-72
2024/01/05 00:18:30;;;;;;;12.05;8.00;;;;;;;;;;5088936;28;20046;-70
2024/01/05 00:20:57;;;;;;;5.75;5.13;;;;;;;;;;5090598;28;20110;-70
2024/01/05 00:23:23;;;;;;;3.90;3.70;;;;;;;;;;5088154;28;20779;-71
2024/01/05 00:25:49;;;;;;;11.77;6.93;;;;;;;;;;5088758;28;20115;-70
2024/01/05 00:28:15;;;;;;;6.90;6.22;;;;;;;;;;5088470;28;20162;-70
2024/01/05 00:30:41;;;;;;;11.88;6.60;;;;;;;;;;5102381;28;20036;-71
2024/01/05 00:33:07;;;;;;;7.75;5.40;;;;;;;;;;5089625;28;20134;-70
2024/01/05 00:35:33;;;;;;;3.03;2.92;;;;;;;;;;5092403;28;20487;-71
2024/01/05 00:37:59;;;;;;;9.15;6.82;;;;;;;;;;5092761;28;20043;-70
2024/01/05 00:40:26;;;;;;;7.25;6.20;;;;;;;;;;5088115;28;20201;-72
2024/01/05 00:42:52;;;;;;;4.45;4.15;;;;;;;;;;5087225;28;20052;-72
2024/01/05 00:45:20;;;;;;;15.52;9.63;;;;;;;;;;5088352;28;20121;-73
2024/01/05 00:47:53;;;;;;;15.45;7.90;;;;;;;;;;5088342;28;20495;-73
2024/01/05 00:50:19;;;;;;;15.95;8.82;;;;;;;;;;5089488;28;20048;-73
2024/01/05 00:52:45;;;;;;;14.90;9.23;;;;;;;;;;5089824;28;20035;-72
2024/01/05 00:55:11;;;;;;;11.40;7.95;;;;;;;;;;5088838;28;20036;-72
2024/01/05 00:57:37;;;;;;;16.38;8.80;;;;;;;;;;5088826;28;20031;-72
2024/01/05 01:00:04;;;;;;;6.15;5.47;;;;;;;;;;5089921;28;20044;-71
2024/01/05 01:02:31;;;;;;;10.85;7.75;;;;;;;;;;5089705;28;20035;-76
2024/01/05 01:04:57;;;;;;;4.40;4.10;;;;;;;;;;5072168;28;20031;-72
2024/01/05 01:07:22;;;;;;;12.05;8.90;;;;;;;;;;5088693;28;20496;-72
2024/01/05 01:09:48;;;;;;;5.65;4.80;;;;;;;;;;5102163;28;20028;-71
2024/01/05 01:12:14;;;;;;;9.30;7.35;;;;;;;;;;5108911;28;20061;-71
2024/01/05 01:14:40;;;;;;;16.38;8.20;;;;;;;;;;5103006;28;20052;-72
2024/01/05 01:17:06;;;;;;;12.95;7.07;;;;;;;;;;5090004;28;20805;-70
2024/01/05 01:19:32;;;;;;;12.05;9.32;;;;;;;;;;5088420;28;20036;-71
2024/01/05 01:21:58;;;;;;;6.28;5.72;;;;;;;;;;5091464;28;20559;-71
2024/01/05 01:24:23;;;;;;;5.80;5.32;;;;;;;;;;5088053;28;20039;-72
2024/01/05 01:26:49;;;;;;;10.55;6.07;;;;;;;;;;5087560;28;20050;-72
2024/01/05 01:29:15;;;;;;;6.95;5.80;;;;;;;;;;5088957;28;20120;-72
2024/01/05 01:31:41;;;;;;;9.63;6.32;;;;;;;;;;5088342;28;20048;-72
2024/01/05 01:34:07;;;;;;;6.03;4.90;;;;;;;;;;5087368;28;20517;-71
2024/01/05 01:36:32;;;;;;;13.50;7.40;;;;;;;;;;5087386;28;20046;-71
2024/01/05 01:38:58;;;;;;;8.57;6.32;;;;;;;;;;5088966;28;20085;-71
2024/01/05 01:41:24;;;;;;;5.22;4.50;;;;;;;;;;5088936;28;20035;-71
2024/01/05 01:43:50;;;;;;;3.88;3.72;;;;;;;;;;5088031;28;20044;-72
2024/01/05 01:46:16;;;;;;;7.22;5.60;;;;;;;;;;5088548;28;20040;-71
2024/01/05 01:48:44;;;;;;;5.00;4.60;;;;;;;;;;5087312;28;20115;-71
2024/01/05 01:51:11;;;;;;;5.60;5.20;;;;;;;;;;5087443;28;20063;-71
2024/01/05 01:53:36;;;;;;;10.75;8.07;;;;;;;;;;5089733;28;20044;-71
2024/01/05 01:56:03;;;;;;;7.28;5.85;;;;;;;;;;5091692;28;20104;-71
2024/01/05 01:58:29;;;;;;;10.35;5.70;;;;;;;;;;5092720;28;20039;-71
2024/01/05 02:00:55;;;;;;;14.13;9.20;;;;;;;;;;5074919;28;20040;-71
2024/01/05 02:03:21;;;;;;;7.45;6.28;;;;;;;;;;5091198;28;20032;-71
2024/01/05 02:05:47;;;;;;;10.32;7.85;;;;;;;;;;5092535;28;20641;-71
2024/01/05 02:08:13;;;;;;;7.13;6.20;;;;;;;;;;5090966;28;20058;-72
2024/01/05 02:10:40;;;;;;;9.25;6.65;;;;;;;;;;5091275;28;20496;-72
2024/01/05 02:13:07;;;;;;;13.07;9.95;;;;;;;;;;5101202;28;20035;-71
2024/01/05 02:15:33;;;;;;;7.95;6.90;;;;;;;;;;5111191;28;20036;-72
2024/01/05 02:18:19;;;;;;;24.30;9.05;;;;;;;;;;5111570;28;20533;-72
2024/01/05 02:20:47;;;;;;;7.03;6.32;;;;;;;;;;5112736;28;20031;-72
2024/01/05 02:23:23;;;;;;;13.88;9.52;;;;;;;;;;5112486;28;20480;-73
2024/01/05 02:25:49;;;;;;;4.57;4.28;;;;;;;;;;5112431;28;20027;-72
2024/01/05 02:28:15;;;;;;;6.22;5.65;;;;;;;;;;5094287;28;20526;-73
2024/01/05 02:30:41;;;;;;;6.22;5.72;;;;;;;;;;5115236;28;20031;-72
2024/01/05 02:33:06;;;;;;;4.72;4.28;;;;;;;;;;5113971;27;20051;-71
2024/01/05 02:35:32;;;;;;;11.88;6.63;;;;;;;;;;5111796;28;20507;-72
2024/01/05 02:37:58;;;;;;;3.72;3.53;;;;;;;;;;5113583;28;20027;-73
2024/01/05 02:40:24;;;;;;;6.25;5.75;;;;;;;;;;5119061;28;20055;-72
2024/01/05 02:42:50;;;;;;;3.05;2.95;;;;;;;;;;5117521;28;20113;-71
2024/01/05 02:45:20;;;;;;;4.80;4.35;;;;;;;;;;5119969;28;20118;-71
2024/01/05 02:47:50;;;;;;;5.97;4.95;;;;;;;;;;5100580;28;20028;-71
2024/01/05 02:50:16;;;;;;;6.57;5.82;;;;;;;;;;5118714;28;20138;-71
2024/01/05 02:52:42;;;;;;;6.43;5.50;;;;;;;;;;5119015;28;20035;-72
2024/01/05 02:55:09;;;;;;;7.28;6.57;;;;;;;;;;5102193;28;20047;-71
2024/01/05 02:57:35;;;;;;;3.78;3.58;;;;;;;;;;5100668;28;20032;-72
2024/01/05 03:00:02;;;;;;;16.20;6.50;;;;;;;;;;5119225;27;20035;-71
2024/01/05 03:02:32;;;;;;;10.98;8.57;;;;;;;;;;5114993;28;20487;-71
2024/01/05 03:04:58;;;;;;;14.10;8.20;;;;;;;;;;5116543;28;20042;-71
2024/01/05 03:07:24;;;;;;;4.43;4.18;;;;;;;;;;5118112;28;20492;-71
2024/01/05 03:09:50;;;;;;;12.60;7.47;;;;;;;;;;5117666;28;20034;-72
2024/01/05 03:12:16;;;;;;;4.40;4.03;;;;;;;;;;5117762;28;20089;-71
2024/01/05 03:14:42;;;;;;;6.30;5.75;;;;;;;;;;5116252;28;20081;-70
2024/01/05 03:17:07;;;;;;;2.30;2.30;;;;;;;;;;5117541;28;20492;-71
2024/01/05 03:19:33;;;;;;;8.95;7.03;;;;;;;;;;5116894;28;20040;-71
2024/01/05 03:21:59;;;;;;;15.38;8.05;;;;;;;;;;5117256;28;20111;-72
2024/01/05 03:24:25;;;;;;;10.85;4.88;;;;;;;;;;5116519;28;20035;-71
2024/01/05 03:26:51;;;;;;;9.13;5.70;;;;;;;;;;5117898;28;20031;-70
2024/01/05 03:29:17;;;;;;;9.10;7.75;;;;;;;;;;5115720;28;20576;-71
2024/01/05 03:31:43;;;;;;;4.80;4.43;;;;;;;;;;5115896;28;20111;-71
2024/01/05 03:34:09;;;;;;;11.15;6.95;;;;;;;;;;5115698;28;20534;-71
2024/01/05 03:36:35;;;;;;;11.23;8.20;;;;;;;;;;5114026;28;20031;-71
2024/01/05 03:39:02;;;;;;;11.88;7.82;;;;;;;;;;5112738;28;20108;-71
2024/01/05 03:41:28;;;;;;;2.97;2.40;;;;;;;;;;5114774;28;20031;-73
2024/01/05 03:43:54;;;;;;;6.95;6.25;;;;;;;;;;5115909;28;20415;-72
2024/01/05 03:46:20;;;;;;;4.72;4.43;;;;;;;;;;5117047;28;20035;-72
2024/01/05 03:48:46;;;;;;;3.47;3.38;;;;;;;;;;5116144;28;20042;-72
2024/01/05 03:51:12;;;;;;;3.30;2.95;;;;;;;;;;5113371;28;20032;-72
2024/01/05 03:53:38;;;;;;;3.40;3.20;;;;;;;;;;5113872;27;20419;-71
2024/01/05 03:56:04;;;;;;;5.13;4.82;;;;;;;;;;5111535;28;20042;-71
2024/01/05 03:58:30;;;;;;;3.58;3.47;;;;;;;;;;5111515;28;20044;-72
2024/01/05 04:00:56;;;;;;;2.75;2.65;;;;;;;;;;5097762;28;20067;-71
2024/01/05 04:03:21;;;;;;;3.55;3.25;;;;;;;;;;5121853;28;20051;-73
2024/01/05 04:05:48;;;;;;;6.20;5.55;;;;;;;;;;5121117;28;20046;-73
2024/01/05 04:08:13;;;;;;;13.00;9.02;;;;;;;;;;5114997;28;20051;-72
2024/01/05 04:10:39;;;;;;;3.00;2.88;;;;;;;;;;5116283;28;20495;-72
2024/01/05 04:13:05;;;;;;;6.82;6.07;;;;;;;;;;5117764;28;20471;-72
2024/01/05 04:15:37;;;;;;;5.57;4.70;;;;;;;;;;5114390;28;20047;-73
2024/01/05 04:18:03;;;;;;;8.32;7.32;;;;;;;;;;5079980;28;20033;-72
2024/01/05 04:20:29;;;;;;;7.80;6.47;;;;;;;;;;5115014;28;20578;-72
2024/01/05 04:22:55;;;;;;;10.80;8.07;;;;;;;;;;5114847;27;20039;-72
2024/01/05 04:25:21;;;;;;;3.63;3.50;;;;;;;;;;5114375;28;20103;-71
2024/01/05 04:27:47;;;;;;;12.48;9.02;;;;;;;;;;5113538;28;20170;-71
2024/01/05 04:30:13;;;;;;;5.32;5.00;;;;;;;;;;5093007;28;20042;-72
2024/01/05 04:32:38;;;;;;;12.63;8.55;;;;;;;;;;5104428;28;20053;-73
2024/01/05 04:35:04;;;;;;;7.60;5.90;;;;;;;;;;5075860;28;20048;-71
2024/01/05 04:37:36;;;;;;;16.67;8.02;;;;;;;;;;5074657;28;20536;-72
2024/01/05 04:40:02;;;;;;;12.73;8.50;;;;;;;;;;5075135;28;20036;-71
2024/01/05 04:42:29;;;;;;;3.10;3.00;;;;;;;;;;5089970;28;20088;-73
2024/01/05 04:44:55;;;;;;;4.47;3.95;;;;;;;;;;5090376;28;20063;-73
2024/01/05 04:47:21;;;;;;;5.25;3.63;;;;;;;;;;5073658;28;20029;-71
2024/01/05 04:49:47;;;;;;;8.73;6.80;;;;;;;;;;5071507;28;20040;-72
2024/01/05 04:52:13;;;;;;;11.68;7.78;;;;;;;;;;5069887;28;20094;-71
2024/01/05 04:54:39;;;;;;;5.05;4.55;;;;;;;;;;5076457;28;20419;-72
2024/01/05 04:57:05;;;;;;;5.85;5.50;;;;;;;;;;5109108;28;20024;-72
2024/01/05 04:59:31;;;;;;;9.40;7.22;;;;;;;;;;5109887;28;20044;-72
2024/01/05 05:01:58;;;;;;;5.25;4.72;;;;;;;;;;5111377;28;20471;-70
2024/01/05 05:04:24;;;;;;;10.48;8.38;;;;;;;;;;5108360;28;20043;-72
2024/01/05 05:06:50;;;;;;;2.95;2.85;;;;;;;;;;5109806;28;20145;-71
2024/01/05 05:09:16;;;;;;;8.57;6.90;;;;;;;;;;5109448;28;20081;-71
2024/01/05 05:11:43;;;;;;;4.32;4.03;;;;;;;;;;5109690;28;20073;-72
2024/01/05 05:14:09;;;;;;;14.73;6.63;;;;;;;;;;5109188;28;20389;-72
2024/01/05 05:16:35;;;;;;;16.73;6.82;;;;;;;;;;5106881;28;20053;-72
2024/01/05 05:19:01;;;;;;;3.90;3.65;;;;;;;;;;5084731;28;20031;-71
2024/01/05 05:21:28;;;;;;;11.32;8.07;;;;;;;;;;5076833;28;20093;-71
2024/01/05 05:23:53;;;;;;;10.27;8.05;;;;;;;;;;5081397;28;20062;-72
2024/01/05 05:26:19;;;;;;;5.45;5.10;;;;;;;;;;5084512;28;20400;-71
2024/01/05 05:28:45;;;;;;;3.28;3.08;;;;;;;;;;5080041;28;20602;-71
2024/01/05 05:31:11;;;;;;;2.78;2.70;;;;;;;;;;5100966;28;20024;-72
2024/01/05 05:33:36;;;;;;;5.10;4.55;;;;;;;;;;5077956;28;20044;-71
2024/01/05 05:36:02;;;;;;;3.30;3.20;;;;;;;;;;5083749;28;20036;-72
2024/01/05 05:38:28;;;;;;;5.45;5.25;;;;;;;;;;5078712;28;20029;-73
2024/01/05 05:40:54;;;;;;;2.30;2.30;;;;;;;;;;5101324;28;20032;-71
2024/01/05 05:43:20;;;;;;;5.03;4.63;;;;;;;;;;5078636;28;20048;-71
2024/01/05 05:45:45;;;;;;;12.93;7.60;;;;;;;;;;5076557;28;20039;-72
2024/01/05 05:48:14;;;;;;;5.00;4.70;;;;;;;;;;5058753;28;20041;-72
2024/01/05 05:50:40;;;;;;;4.57;4.30;;;;;;;;;;5078790;28;20574;-72
2024/01/05 05:53:06;;;;;;;3.00;2.85;;;;;;;;;;5078300;28;20123;-71
2024/01/05 05:55:32;;;;;;;3.30;3.20;;;;;;;;;;5058868;28;20035;-72
2024/01/05 05:57:58;;;;;;;4.53;4.05;;;;;;;;;;5103970;28;20031;-73
2024/01/05 06:00:26;;;;;;;4.60;4.30;;;;;;;;;;5088619;28;20043;-71
2024/01/05 06:02:52;;;;;;;4.47;4.15;;;;;;;;;;5088706;28;20036;-72
2024/01/05 06:05:18;;;;;;;3.08;3.00;;;;;;;;;;5088465;28;20036;-72
2024/01/05 06:07:44;;;;;;;2.45;2.45;;;;;;;;;;5088482;28;20540;-72
2024/01/05 06:10:10;;;;;;;2.65;2.53;;;;;;;;;;5087279;28;20028;-73
2024/01/05 06:12:36;;;;;;;3.28;3.17;;;;;;;;;;5070321;28;20043;-72
2024/01/05 06:15:02;;;;;;;3.67;3.58;;;;;;;;;;5084938;28;20045;-71
2024/01/05 06:17:35;;;;;;;6.20;5.47;;;;;;;;;;5088028;28;20039;-71
2024/01/05 06:20:01;;;;;;;4.55;4.25;;;;;;;;;;5090068;28;20032;-71
2024/01/05 06:22:27;;;;;;;3.13;3.05;;;;;;;;;;5087111;28;20032;-71
2024/01/05 06:24:53;;;;;;;4.80;4.60;;;;;;;;;;5086447;28;20046;-72
2024/01/05 06:27:18;;;;;;;2.33;2.33;;;;;;;;;;5089291;28;20040;-73
2024/01/05 06:29:44;;;;;;;7.32;5.85;;;;;;;;;;5087982;28;20032;-72
2024/01/05 06:32:10;;;;;;;4.40;4.05;;;;;;;;;;5086243;28;20083;-71
2024/01/05 06:34:36;;;;;;;8.25;6.60;;;;;;;;;;5087807;28;20047;-72
2024/01/05 06:37:02;;;;;;;4.65;4.10;;;;;;;;;;5087949;28;20032;-71
2024/01/05 06:39:28;;;;;;;3.72;3.47;;;;;;;;;;5088600;28;20059;-73
2024/01/05 06:41:55;;;;;;;2.33;2.25;;;;;;;;;;5091975;28;20097;-73
2024/01/05 06:44:21;;;;;;;15.48;6.63;;;;;;;;;;5074133;28;20131;-72
2024/01/05 06:46:47;;;;;;;3.72;3.53;;;;;;;;;;5092131;28;20043;-71
2024/01/05 06:49:13;;;;;;;6.10;4.60;;;;;;;;;;5090395;28;20040;-71
2024/01/05 06:51:39;;;;;;;16.02;8.30;;;;;;;;;;5091791;28;20107;-71
2024/01/05 06:54:05;;;;;;;3.25;3.15;;;;;;;;;;5090372;28;20104;-71
2024/01/05 06:56:32;;;;;;;8.30;5.55;;;;;;;;;;5102933;28;20360;-73
2024/01/05 06:59:00;;;;;;;7.03;6.50;;;;;;;;;;5104724;28;20055;-72
2024/01/05 07:01:26;;;;;;;4.35;4.05;;;;;;;;;;5092862;28;20038;-72
2024/01/05 07:03:51;;;;;;;11.88;8.45;;;;;;;;;;5088501;28;20118;-71
2024/01/05 07:06:17;;;;;;;4.05;3.95;;;;;;;;;;5091421;28;20032;-71
2024/01/05 07:08:46;;;;;;;12.82;7.82;;;;;;;;;;5100242;28;20043;-72
2024/01/05 07:11:23;;;;;;;2.40;2.30;;;;;;;;;;5109909;28;20032;-73
2024/01/05 07:13:49;;;;;;;10.80;6.03;;;;;;;;;;5081712;28;20047;-71
2024/01/05 07:16:24;;;;;;;7.78;4.68;;;;;;;;;;5084513;28;20047;-71
2024/01/05 07:18:50;;;;;;;9.65;4.70;;;;;;;;;;5077035;28;20114;-72
2024/01/05 07:21:16;;;;;;;6.57;5.90;;;;;;;;;;5083366;28;20123;-70
2024/01/05 07:23:45;;;;;;;16.42;10.45;;;;;;;;;;5079794;28;20032;-70
2024/01/05 07:26:12;;;;;;;10.73;6.97;;;;;;;;;;5084344;28;20028;-71
2024/01/05 07:28:43;;;;;;;;;;;;;;;;;;5078592;28;20036;-72
2024/01/05 07:31:09;;;;;;;3.53;3.35;;;;;;;;;;5069454;28;20277;-71
2024/01/05 07:33:48;;;;;;;8.77;6.53;;;;;;;;;;5088662;28;20397;-75
2024/01/05 07:36:15;;;;;;;11.13;7.88;;;;;;;;;;5090496;28;20032;-71
2024/01/05 07:38:41;;;;;;;4.70;4.35;;;;;;;;;;5072638;28;20037;-71
2024/01/05 07:41:07;;;;;;;11.68;8.90;;;;;;;;;;5068922;28;20037;-71
2024/01/05 07:43:33;;;;;;;12.85;7.28;;;;;;;;;;5085558;28;20081;-72
2024/01/05 07:46:02;;;;;;;7.25;3.20;;;;;;;;;;5089094;28;20428;-71
2024/01/05 07:48:32;;;;;;;10.50;7.28;;;;;;;;;;5090793;28;20032;-71
2024/01/05 07:50:58;;;;;;;4.88;4.45;;;;;;;;;;5089464;28;20079;-73
2024/01/05 07:53:24;;;;;;;5.93;4.93;;;;;;;;;;5087677;28;20075;-70
2024/01/05 07:55:50;;;;;;;5.18;4.88;;;;;;;;;;5089344;28;20464;-72
2024/01/05 07:58:16;;;;;;;8.02;7.18;;;;;;;;;;5076004;28;20181;-71
2024/01/05 08:00:41;;;;;;;5.30;4.72;;;;;;;;;;5034335;28;20561;-71
2024/01/05 08:03:07;;;;;;;2.67;2.60;;;;;;;;;;5076425;28;20158;-70
2024/01/05 08:05:33;;;;;;;5.35;3.13;;;;;;;;;;5090438;28;20032;-74
2024/01/05 08:07:59;;;;;;;10.93;6.70;;;;;;;;;;5081477;28;20349;-72
2024/01/05 08:10:25;;;;;;;3.30;3.20;;;;;;;;;;5086897;28;20534;-71
2024/01/05 08:12:51;;;;;;;8.20;6.03;;;;;;;;;;5075833;28;20582;-73
2024/01/05 08:15:16;;;;;;;3.17;2.92;;;;;;;;;;5086668;28;20043;-73
2024/01/05 08:18:03;;;;;;;5.13;4.63;;;;;;;;;;5084548;28;20032;-70
2024/01/05 08:20:29;;;;;;;3.88;3.00;;;;;;;;;;5085696;28;20032;-72
2024/01/05 08:22:55;;;;;;;2.45;2.35;;;;;;;;;;5078660;28;20044;-72
2024/01/05 08:25:21;;;;;;;8.55;5.05;;;;;;;;;;5066529;28;20040;-71
2024/01/05 08:27:47;;;;;;;6.90;5.60;;;;;;;;;;5074278;28;20036;-71
2024/01/05 08:30:13;;;;;;;3.88;3.55;;;;;;;;;;5087579;28;20309;-72
2024/01/05 08:32:40;;;;;;;4.32;3.92;;;;;;;;;;5082200;28;20060;-74
2024/01/05 08:35:06;;;;;;;4.72;3.83;;;;;;;;;;5050645;28;20143;-71
2024/01/05 08:37:33;;;;;;;6.47;3.72;;;;;;;;;;5068170;28;20028;-71
2024/01/05 08:39:58;;;;;;;4.72;3.42;;;;;;;;;;5078718;28;20036;-71
2024/01/05 08:42:24;;;;;;;10.82;5.78;;;;;;;;;;5078277;28;20124;-71
2024/01/05 08:44:50;;;;;;;5.82;5.07;;;;;;;;;;5077224;28;20032;-71
2024/01/05 08:47:16;;;;;;;2.92;2.72;;;;;;;;;;5076428;28;20021;-70
2024/01/05 08:49:42;;;;;;;5.03;4.05;;;;;;;;;;5075988;28;20095;-71
2024/01/05 08:52:08;;;;;;;4.40;4.07;;;;;;;;;;5102809;28;20111;-71
2024/01/05 08:54:34;;;;;;;6.03;5.55;;;;;;;;;;5078101;28;20096;-72
2024/01/05 08:57:00;;;;;;;4.00;3.70;;;;;;;;;;5079465;28;20774;-71
2024/01/05 08:59:26;;;;;;;6.15;5.55;;;;;;;;;;5075713;28;20092;-72
2024/01/05 09:01:52;;;;;;;4.88;4.40;;;;;;;;;;5076373;28;20377;-73
2024/01/05 09:04:18;;;;;;;5.38;4.85;;;;;;;;;;5075289;28;20055;-72
2024/01/05 09:06:44;;;;;;;4.78;4.38;;;;;;;;;;5100197;28;20020;-72
2024/01/05 09:09:13;;;;;;;5.82;5.18;;;;;;;;;;5068712;28;20043;-71
2024/01/05 09:11:41;;;;;;;11.27;9.43;;;;;;;;;;5066703;28;20037;-71
2024/01/05 09:14:07;;;;;;;9.70;7.97;;;;;;;;;;5078948;28;20037;-71
2024/01/05 09:16:33;;;;;;;4.45;4.15;;;;;;;;;;5077162;28;20039;-71
2024/01/05 09:18:59;;;;;;;5.50;5.00;;;;;;;;;;5076142;28;20246;-72
2024/01/05 09:21:25;;;;;;;5.57;4.07;;;;;;;;;;5081027;28;20039;-71
2024/01/05 09:23:50;;;;;;;6.07;3.50;;;;;;;;;;5075559;28;20039;-71
2024/01/05 09:26:16;;;;;;;4.38;4.07;;;;;;;;;;5067167;28;20427;-70
2024/01/05 09:28:42;;;;;;;8.93;3.97;;;;;;;;;;5058283;28;20472;-70
2024/01/05 09:31:09;;;;;;;13.63;10.07;;;;;;;;;;5080977;28;20028;-70
2024/01/05 09:33:36;;;;;;;8.68;5.57;;;;;;;;;;5076007;28;20079;-71
2024/01/05 09:36:02;;;;;;;5.00;4.65;;;;;;;;;;5069903;28;20120;-70
2024/01/05 09:38:49;;;;;;;4.32;4.05;;;;;;;;;;5074519;28;20032;-71
2024/01/05 09:41:34;;;;;;;2.92;2.78;;;;;;;;;;5076128;28;20036;-70
2024/01/05 09:44:20;;;;;;;4.68;4.47;;;;;;;;;;5074994;28;20028;-70
2024/01/05 09:47:06;;;;;;;5.10;4.60;;;;;;;;;;5075945;28;20040;-69
2024/01/05 09:49:52;;;;;;;9.10;6.93;;;;;;;;;;5087762;28;20033;-70
2024/01/05 09:52:44;;;;;;;9.30;5.95;;;;;;;;;;5091740;28;20036;-69
2024/01/05 09:55:33;;;;;;;3.35;3.25;;;;;;;;;;5083775;28;20127;-71
2024/01/05 09:58:19;;;;;;;4.88;4.40;;;;;;;;;;5080434;28;20037;-71
2024/01/05 10:01:06;;;;;;;22.65;10.32;;;;;;;;;;5067417;28;20035;-70
2024/01/05 10:03:54;;;;;;;5.13;4.72;;;;;;;;;;5052781;28;20032;-71
2024/01/05 10:06:40;;;;;;;5.85;5.32;;;;;;;;;;5066611;28;20040;-72
2024/01/05 10:09:27;;;;;;;13.18;8.68;;;;;;;;;;5052936;28;20071;-72
2024/01/05 10:12:13;;;;;;;4.88;4.47;;;;;;;;;;5081548;28;20182;-72
2024/01/05 10:15:03;;;;;;;4.82;4.43;;;;;;;;;;5076825;28;20044;-70
2024/01/05 10:17:49;;;;;;;6.57;5.43;;;;;;;;;;5071934;28;20041;-71
2024/01/05 10:20:36;;;;;;;14.13;8.55;;;;;;;;;;5069313;28;20470;-71
2024/01/05 10:23:22;;;;;;;7.05;5.80;;;;;;;;;;5076614;28;20507;-73
2024/01/05 10:25:49;;;;;;;2.75;2.65;;;;;;;;;;5084095;28;20032;-72
2024/01/05 10:28:37;;;;;;;3.42;3.33;;;;;;;;;;5073271;28;20036;-72
2024/01/05 10:31:23;;;;;;;2.88;2.67;;;;;;;;;;5071868;28;20049;-72
2024/01/05 10:34:09;;;;;;;7.25;4.95;;;;;;;;;;5080698;28;20106;-73
2024/01/05 10:37:05;;;;;;;9.48;5.90;;;;;;;;;;5076488;28;20040;-72
2024/01/05 10:39:51;;;;;;;11.15;9.23;;;;;;;;;;5074072;28;20039;-71
2024/01/05 10:42:37;;;;;;;3.15;3.05;;;;;;;;;;5072400;28;20147;-71
2024/01/05 10:45:24;;;;;;;9.35;8.15;;;;;;;;;;5081289;28;20105;-71
2024/01/05 10:48:13;;;;;;;6.20;5.65;;;;;;;;;;5070011;28;20043;-70
2024/01/05 10:50:59;;;;;;;3.97;3.63;;;;;;;;;;5087225;28;20044;-73
2024/01/05 10:53:46;;;;;;;7.30;5.32;;;;;;;;;;5059712;28;20065;-71
2024/01/05 10:56:32;;;;;;;3.85;3.55;;;;;;;;;;5092109;28;20043;-71
2024/01/05 10:59:19;;;;;;;3.22;3.03;;;;;;;;;;5063868;28;20058;-70
2024/01/05 11:02:08;;;;;;;2.95;2.75;;;;;;;;;;5064212;28;20044;-69
2024/01/05 11:05:00;;;;;;;2.80;2.70;;;;;;;;;;5051903;28;20032;-70
2024/01/05 11:07:47;;;;;;;4.53;4.22;;;;;;;;;;5088094;28;20055;-70
2024/01/05 11:10:33;;;;;;;4.82;4.32;;;;;;;;;;5054732;28;20505;-70
2024/01/05 11:13:39;;;;;;;2.28;2.28;;;;;;;;;;5069733;28;20052;-71
2024/01/05 11:16:57;;;;;;;3.17;3.00;;;;;;;;;;5085992;28;20044;-71
2024/01/05 11:19:49;;;;;;;4.07;3.83;;;;;;;;;;5066013;28;20040;-70
2024/01/05 11:22:35;;;;;;;2.83;2.72;;;;;;;;;;5076416;28;20070;-73
2024/01/05 11:25:21;;;;;;;5.65;5.05;;;;;;;;;;5070310;28;20036;-72
2024/01/05 11:28:08;;;;;;;6.88;6.00;;;;;;;;;;5099631;28;20428;-71
2024/01/05 11:30:54;;;;;;;11.15;7.22;;;;;;;;;;5068784;28;20040;-72
2024/01/05 11:33:49;;;;;;;14.32;4.35;;;;;;;;;;5082106;28;20036;-71
2024/01/05 11:36:55;;;;;;;2.15;2.10;;;;;;;;;;5056049;28;20578;-72
2024/01/05 11:39:44;;;;;;;10.35;6.90;;;;;;;;;;5077495;28;20046;-71
2024/01/05 11:42:33;;;;;;;22.35;10.25;;;;;;;;;;5072358;28;20051;-71
2024/01/05 11:45:37;;;;;;;20.77;12.70;;;;;;;;;;5068811;28;20074;-73
2024/01/05 11:48:35;;;;;;;6.28;4.85;;;;;;;;;;5054622;28;20064;-72
2024/01/05 11:51:21;;;;;;;14.65;9.57;;;;;;;;;;5068156;28;20562;-71
2024/01/05 11:54:09;;;;;;;12.88;9.25;;;;;;;;;;5075028;28;20098;-71
2024/01/05 11:56:54;;;;;;;6.80;5.95;;;;;;;;;;5095564;28;20096;-70
2024/01/05 11:59:40;;;;;;;5.70;5.22;;;;;;;;;;5058534;28;20044;-71
2024/01/05 12:02:26;;;;;;;13.32;9.57;;;;;;;;;;5074363;28;20032;-71
2024/01/05 12:05:16;;;;;;;11.63;7.85;;;;;;;;;;5082550;28;20731;-71
2024/01/05 12:08:02;;;;;;;7.13;6.45;;;;;;;;;;5092911;28;20545;-71
2024/01/05 12:10:51;;;;;;;6.05;5.55;;;;;;;;;;5076932;28;20526;-73
2024/01/05 12:13:39;;;;;;;6.95;6.22;;;;;;;;;;5071350;28;20036;-73
2024/01/05 12:16:25;;;;;;;11.65;8.38;;;;;;;;;;5079894;28;20432;-72
2024/01/05 12:19:18;;;;;;;13.55;7.70;;;;;;;;;;5059516;28;20036;-72
2024/01/05 12:22:04;;;;;;;3.92;3.80;;;;;;;;;;5081447;28;20398;-72
2024/01/05 12:24:50;;;;;;;3.72;3.40;;;;;;;;;;5062708;28;20035;-71
2024/01/05 12:27:39;;;;;;;2.92;2.83;;;;;;;;;;5064250;28;20505;-71
2024/01/05 12:30:26;;;;;;;9.50;5.13;;;;;;;;;;5077336;28;20050;-71
2024/01/05 12:33:12;;;;;;;2.72;2.63;;;;;;;;;;5096431;28;20117;-71
2024/01/05 12:35:57;;;;;;;3.72;3.63;;;;;;;;;;5063290;28;20063;-72
2024/01/05 12:38:43;;;;;;;11.50;6.75;;;;;;;;;;5081632;28;20024;-70
2024/01/05 12:41:29;;;;;;;7.35;6.07;;;;;;;;;;5086535;28;20427;-71
2024/01/05 12:44:15;;;;;;;12.75;8.90;;;;;;;;;;5074976;28;20067;-72
2024/01/05 12:47:01;;;;;;;7.72;5.10;;;;;;;;;;5096574;28;20737;-70
2024/01/05 12:49:48;;;;;;;7.95;7.18;;;;;;;;;;5063088;28;20087;-69
2024/01/05 12:52:34;;;;;;;10.48;7.28;;;;;;;;;;5080116;28;20329;-71
2024/01/05 12:55:46;;;;;;;8.35;7.25;;;;;;;;;;5067258;28;20073;-72
2024/01/05 12:58:36;;;;;;;8.80;7.68;;;;;;;;;;5080102;28;20036;-71
2024/01/05 13:01:26;;;;;;;9.65;8.10;;;;;;;;;;5082993;28;20132;-70
2024/01/05 13:04:39;;;;;;;16.02;9.68;;;;;;;;;;5081058;28;20051;-79
2024/01/05 13:07:26;;;;;;;4.90;4.50;;;;;;;;;;5067802;28;20025;-73
2024/01/05 13:10:11;;;;;;;9.70;7.85;;;;;;;;;;5077917;28;20036;-71
2024/01/05 13:12:57;;;;;;;5.35;4.78;;;;;;;;;;5062998;28;20504;-70
2024/01/05 13:15:45;;;;;;;15.02;9.25;;;;;;;;;;5068512;28;20044;-71
2024/01/05 13:18:31;;;;;;;9.70;7.10;;;;;;;;;;5077982;28;20049;-71
2024/01/05 13:21:17;;;;;;;14.63;8.15;;;;;;;;;;5077951;28;20028;-71
2024/01/05 13:24:03;;;;;;;19.52;10.63;;;;;;;;;;5068884;28;20087;-71
2024/01/05 13:26:49;;;;;;;13.80;9.45;;;;;;;;;;5060932;28;20585;-71
2024/01/05 13:29:35;;;;;;;5.38;5.00;;;;;;;;;;5064571;28;20070;-71
2024/01/05 13:32:20;;;;;;;5.13;4.82;;;;;;;;;;5081940;28;20119;-72
2024/01/05 13:35:06;;;;;;;7.82;6.25;;;;;;;;;;5060646;28;20056;-71
2024/01/05 13:37:52;;;;;;;12.48;6.30;;;;;;;;;;5069588;28;20032;-71
2024/01/05 13:40:41;;;;;;;10.60;7.43;;;;;;;;;;5074191;28;20077;-70
2024/01/05 13:43:27;;;;;;;15.27;10.43;;;;;;;;;;5074325;28;20530;-70
2024/01/05 13:46:13;;;;;;;12.73;8.23;;;;;;;;;;5084626;28;20040;-71
2024/01/05 13:48:58;;;;;;;17.40;9.98;;;;;;;;;;5069701;28;21074;-70
2024/01/05 13:51:45;;;;;;;11.18;8.90;;;;;;;;;;5077298;28;20039;-70
2024/01/05 13:54:34;;;;;;;8.45;7.47;;;;;;;;;;5077106;28;20048;-71
2024/01/05 13:57:21;;;;;;;21.73;12.23;;;;;;;;;;5071978;28;20118;-70
2024/01/05 14:00:08;;;;;;;9.27;7.35;;;;;;;;;;5068677;28;20412;-69
2024/01/05 14:02:54;;;;;;;17.25;7.60;;;;;;;;;;5068427;28;20123;-71
2024/01/05 14:05:40;;;;;;;5.72;5.22;;;;;;;;;;5068243;28;20107;-69
2024/01/05 14:08:27;;;;;;;20.77;12.30;;;;;;;;;;5070580;28;20043;-70
2024/01/05 14:11:13;;;;;;;26.75;14.40;;;;;;;;;;5062987;28;20572;-70
2024/01/05 14:13:59;;;;;;;7.63;6.20;;;;;;;;;;5079938;28;20040;-70
2024/01/05 14:16:45;;;;;;;28.58;15.82;;;;;;;;;;5063805;28;20036;-70
2024/01/05 14:19:31;;;;;;;23.95;13.10;;;;;;;;;;5084045;28;20111;-70
2024/01/05 14:22:18;;;;;;;4.65;4.40;;;;;;;;;;5077486;28;20059;-68
2024/01/05 14:25:05;;;;;;;19.75;13.38;;;;;;;;;;5096903;28;20037;-70
2024/01/05 14:27:51;;;;;;;10.95;9.20;;;;;;;;;;5067809;28;20404;-70
2024/01/05 14:30:37;;;;;;;11.73;8.00;;;;;;;;;;5075415;28;20028;-70
2024/01/05 14:33:23;;;;;;;13.43;9.27;;;;;;;;;;5080260;28;20048;-71
2024/01/05 14:36:09;;;;;;;3.53;3.42;;;;;;;;;;5065531;28;20054;-70
2024/01/05 14:38:55;;;;;;;7.72;6.43;;;;;;;;;;5080266;28;20036;-70
2024/01/05 14:41:41;;;;;;;11.48;8.35;;;;;;;;;;5078447;28;20040;-70
2024/01/05 14:44:26;;;;;;;11.70;8.02;;;;;;;;;;5079971;28;20046;-70
2024/01/05 14:47:12;;;;;;;19.20;8.65;;;;;;;;;;5075665;28;20059;-70
2024/01/05 14:49:58;;;;;;;15.50;9.63;;;;;;;;;;5051058;28;20064;-70
2024/01/05 14:52:44;;;;;;;12.98;9.73;;;;;;;;;;5075782;28;20520;-69
2024/01/05 14:55:30;;;;;;;15.63;8.85;;;;;;;;;;5077679;28;20055;-70
2024/01/05 14:58:16;;;;;;;9.57;7.80;;;;;;;;;;5081644;28;20078;-70
2024/01/05 15:01:03;;;;;;;5.75;5.35;;;;;;;;;;5079746;28;20058;-70
2024/01/05 15:03:49;;;;;;;10.48;8.25;;;;;;;;;;5064487;28;20108;-70
2024/01/05 15:06:35;;;;;;;26.33;14.30;;;;;;;;;;5078872;28;20092;-71
2024/01/05 15:09:22;;;;;;;22.73;12.05;;;;;;;;;;5077740;28;20393;-71
2024/01/05 15:12:08;;;;;;;23.02;12.45;;;;;;;;;;5065797;28;20033;-72
2024/01/05 15:14:54;;;;;;;9.35;6.60;;;;;;;;;;5080225;28;20128;-72
2024/01/05 15:17:40;;;;;;;3.92;3.67;;;;;;;;;;5071623;28;20123;-72